Time;durP1;ratioP1;P1;durP2;ratioP2;P2;SDS_P1;SDS_P2;PMS_P1;PMS_P2;Temp;Humidity;BMP_temperature;BMP_pressure;BME280_temperature;BME280_humidity;BME280_pressure;Samples;Min_cycle;Max_cycle;Signal;HPM_P1;HPM_P2
2022/10/15 00:00:36;;;;;;;0;0;;;;;;;0;0;0;;;;
2022/10/15 00:01:37;;;;;;;0;0;;;;;;;0;0;0;;;;
2022/10/15 00:02:38;;;;;;;0;0;;;;;;;0;0;0;;;;
2022/10/15 00:03:38;;;;;;;0;0;;;;;;;0;0;0;;;;
2022/10/15 00:04:40;;;;;;;0;0;;;;;;;0;0;0;;;;
2022/10/15 00:05:41;;;;;;;0;0;;;;;;;0;0;0;;;;
2022/10/15 00:06:42;;;;;;;0;0;;;;;;;0;0;0;;;;
2022/10/15 00:07:43;;;;;;;0;0;;;;;;;0;0;0;;;;
2022/10/15 00:08:43;;;;;;;0;0;;;;;;;0;0;0;;;;
2022/10/15 00:09:44;;;;;;;0;0;;;;;;;0;0;0;;;;
2022/10/15 00:10:44;;;;;;;0;0;;;;;;;0;0;0;;;;
2022/10/15 00:11:45;;;;;;;0;0;;;;;;;0;0;0;;;;
2022/10/15 00:12:45;;;;;;;0;0;;;;;;;0;0;0;;;;
2022/10/15 00:13:46;;;;;;;0;0;;;;;;;0;0;0;;;;
2022/10/15 00:14:47;;;;;;;0;0;;;;;;;0;0;0;;;;
2022/10/15 00:15:48;;;;;;;0;0;;;;;;;0;0;0;;;;
2022/10/15 00:16:48;;;;;;;0;0;;;;;;;0;0;0;;;;
2022/10/15 00:17:49;;;;;;;0;0;;;;;;;0;0;0;;;;
2022/10/15 00:18:50;;;;;;;0;0;;;;;;;0;0;0;;;;
2022/10/15 00:19:53;;;;;;;0;0;;;;;;;0;0;0;;;;
2022/10/15 00:20:54;;;;;;;0;0;;;;;;;0;0;0;;;;
2022/10/15 00:21:55;;;;;;;0;0;;;;;;;0;0;0;;;;
2022/10/15 00:22:55;;;;;;;0;0;;;;;;;0;0;0;;;;
2022/10/15 00:23:56;;;;;;;0;0;;;;;;;0;0;0;;;;
2022/10/15 00:24:56;;;;;;;0;0;;;;;;;0;0;0;;;;
2022/10/15 00:25:57;;;;;;;0;0;;;;;;;0;0;0;;;;
2022/10/15 00:27:03;;;;;;;0;0;;;;;;;0;0;0;;;;
2022/10/15 00:28:03;;;;;;;0;0;;;;;;;0;0;0;;;;
2022/10/15 00:29:04;;;;;;;0;0;;;;;;;0;0;0;;;;
2022/10/15 00:30:04;;;;;;;0;0;;;;;;;0;0;0;;;;
2022/10/15 00:31:06;;;;;;;0;0;;;;;;;0;0;0;;;;
2022/10/15 00:32:10;;;;;;;0;0;;;;;;;0;0;0;;;;
2022/10/15 00:33:11;;;;;;;0;0;;;;;;;0;0;0;;;;
2022/10/15 00:34:11;;;;;;;0;0;;;;;;;0;0;0;;;;
2022/10/15 00:35:12;;;;;;;0;0;;;;;;;0;0;0;;;;
2022/10/15 00:36:12;;;;;;;0;0;;;;;;;0;0;0;;;;
2022/10/15 00:37:16;;;;;;;0;0;;;;;;;0;0;0;;;;
2022/10/15 00:38:17;;;;;;;0;0;;;;;;;0;0;0;;;;
2022/10/15 00:39:17;;;;;;;0;0;;;;;;;0;0;0;;;;
2022/10/15 00:40:18;;;;;;;0;0;;;;;;;0;0;0;;;;
2022/10/15 00:41:19;;;;;;;0;0;;;;;;;0;0;0;;;;
2022/10/15 00:42:22;;;;;;;0;0;;;;;;;0;0;0;;;;
2022/10/15 00:43:23;;;;;;;0;0;;;;;;;0;0;0;;;;
2022/10/15 00:44:42;;;;;;;0;0;;;;;;;0;0;0;;;;
2022/10/15 00:45:53;;;;;;;0;0;;;;;;;0;0;0;;;;
2022/10/15 00:46:54;;;;;;;0;0;;;;;;;0;0;0;;;;
2022/10/15 00:47:58;;;;;;;0;0;;;;;;;0;0;0;;;;
2022/10/15 00:48:59;;;;;;;0;0;;;;;;;0;0;0;;;;
2022/10/15 00:50:03;;;;;;;0;0;;;;;;;0;0;0;;;;
2022/10/15 00:51:07;;;;;;;0;0;;;;;;;0;0;0;;;;
2022/10/15 00:52:08;;;;;;;0;0;;;;;;;0;0;0;;;;
2022/10/15 00:53:13;;;;;;;0;0;;;;;;;0;0;0;;;;
2022/10/15 00:54:14;;;;;;;0;0;;;;;;;0;0;0;;;;
2022/10/15 00:55:15;;;;;;;0;0;;;;;;;0;0;0;;;;
2022/10/15 00:56:21;;;;;;;0;0;;;;;;;0;0;0;;;;
2022/10/15 00:57:25;;;;;;;0;0;;;;;;;0;0;0;;;;
2022/10/15 00:58:27;;;;;;;0;0;;;;;;;0;0;0;;;;
2022/10/15 00:59:31;;;;;;;0;0;;;;;;;0;0;0;;;;
2022/10/15 01:00:37;;;;;;;0;0;;;;;;;0;0;0;;;;
2022/10/15 01:01:37;;;;;;;0;0;;;;;;;0;0;0;;;;
2022/10/15 01:02:38;;;;;;;0;0;;;;;;;0;0;0;;;;
2022/10/15 01:03:39;;;;;;;0;0;;;;;;;0;0;0;;;;
2022/10/15 01:04:40;;;;;;;0;0;;;;;;;0;0;0;;;;
2022/10/15 01:05:41;;;;;;;0;0;;;;;;;0;0;0;;;;
2022/10/15 01:06:42;;;;;;;0;0;;;;;;;0;0;0;;;;
2022/10/15 01:07:44;;;;;;;0;0;;;;;;;0;0;0;;;;
2022/10/15 01:08:44;;;;;;;0;0;;;;;;;0;0;0;;;;
2022/10/15 01:09:45;;;;;;;0;0;;;;;;;0;0;0;;;;
2022/10/15 01:10:46;;;;;;;0;0;;;;;;;0;0;0;;;;
2022/10/15 01:11:53;;;;;;;0;0;;;;;;;0;0;0;;;;
2022/10/15 01:12:54;;;;;;;0;0;;;;;;;0;0;0;;;;
2022/10/15 01:14:01;;;;;;;0;0;;;;;;;0;0;0;;;;
2022/10/15 01:15:14;;;;;;;0;0;;;;;;;0;0;0;;;;
2022/10/15 01:16:20;;;;;;;0;0;;;;;;;0;0;0;;;;
2022/10/15 01:17:29;;;;;;;0;0;;;;;;;0;0;0;;;;
2022/10/15 01:18:38;;;;;;;0;0;;;;;;;0;0;0;;;;
2022/10/15 01:19:44;;;;;;;0;0;;;;;;;0;0;0;;;;
2022/10/15 01:21:57;;;;;;;0;0;;;;;;;0;0;0;;;;
2022/10/15 01:23:03;;;;;;;0;0;;;;;;;0;0;0;;;;
2022/10/15 01:24:22;;;;;;;0;0;;;;;;;0;0;0;;;;
2022/10/15 01:25:42;;;;;;;0;0;;;;;;;0;0;0;;;;
2022/10/15 01:26:53;;;;;;;0;0;;;;;;;0;0;0;;;;
2022/10/15 01:29:10;;;;;;;0;0;;;;;;;0;0;0;;;;
2022/10/15 01:30:20;;;;;;;0;0;;;;;;;0;0;0;;;;
2022/10/15 01:31:23;;;;;;;0;0;;;;;;;0;0;0;;;;
2022/10/15 01:32:32;;;;;;;0;0;;;;;;;0;0;0;;;;
2022/10/15 01:33:36;;;;;;;0;0;;;;;;;0;0;0;;;;
2022/10/15 01:34:43;;;;;;;0;0;;;;;;;0;0;0;;;;
2022/10/15 01:35:52;;;;;;;0;0;;;;;;;0;0;0;;;;
2022/10/15 01:36:55;;;;;;;0;0;;;;;;;0;0;0;;;;
2022/10/15 01:38:06;;;;;;;0;0;;;;;;;0;0;0;;;;
2022/10/15 01:39:14;;;;;;;0;0;;;;;;;0;0;0;;;;
2022/10/15 01:40:20;;;;;;;0;0;;;;;;;0;0;0;;;;
2022/10/15 01:41:29;;;;;;;0;0;;;;;;;0;0;0;;;;
2022/10/15 01:42:38;;;;;;;0;0;;;;;;;0;0;0;;;;
2022/10/15 01:43:47;;;;;;;0;0;;;;;;;0;0;0;;;;
2022/10/15 01:44:56;;;;;;;0;0;;;;;;;0;0;0;;;;
2022/10/15 01:46:01;;;;;;;0;0;;;;;;;0;0;0;;;;
2022/10/15 01:47:07;;;;;;;0;0;;;;;;;0;0;0;;;;
2022/10/15 01:48:13;;;;;;;0;0;;;;;;;0;0;0;;;;
2022/10/15 01:49:20;;;;;;;0;0;;;;;;;0;0;0;;;;
2022/10/15 01:50:24;;;;;;;0;0;;;;;;;0;0;0;;;;
2022/10/15 01:51:30;;;;;;;0;0;;;;;;;0;0;0;;;;
2022/10/15 01:52:34;;;;;;;0;0;;;;;;;0;0;0;;;;
2022/10/15 01:53:39;;;;;;;0;0;;;;;;;0;0;0;;;;
2022/10/15 01:54:41;;;;;;;0;0;;;;;;;0;0;0;;;;
2022/10/15 01:55:44;;;;;;;0;0;;;;;;;0;0;0;;;;
2022/10/15 01:56:48;;;;;;;0;0;;;;;;;0;0;0;;;;
2022/10/15 01:57:52;;;;;;;0;0;;;;;;;0;0;0;;;;
2022/10/15 01:58:56;;;;;;;0;0;;;;;;;0;0;0;;;;
2022/10/15 01:59:57;;;;;;;0;0;;;;;;;0;0;0;;;;
2022/10/15 02:00:58;;;;;;;0;0;;;;;;;0;0;0;;;;
2022/10/15 02:01:59;;;;;;;0;0;;;;;;;0;0;0;;;;
2022/10/15 02:02:59;;;;;;;0;0;;;;;;;0;0;0;;;;
2022/10/15 02:04:01;;;;;;;0;0;;;;;;;0;0;0;;;;
2022/10/15 02:05:01;;;;;;;0;0;;;;;;;0;0;0;;;;
2022/10/15 02:06:06;;;;;;;0;0;;;;;;;0;0;0;;;;
2022/10/15 02:07:12;;;;;;;0;0;;;;;;;0;0;0;;;;
2022/10/15 02:08:22;;;;;;;0;0;;;;;;;0;0;0;;;;
2022/10/15 02:09:33;;;;;;;0;0;;;;;;;0;0;0;;;;
2022/10/15 02:10:43;;;;;;;0;0;;;;;;;0;0;0;;;;
2022/10/15 02:11:52;;;;;;;0;0;;;;;;;0;0;0;;;;
2022/10/15 02:13:04;;;;;;;0;0;;;;;;;0;0;0;;;;
2022/10/15 02:14:13;;;;;;;0;0;;;;;;;0;0;0;;;;
2022/10/15 02:15:17;;;;;;;0;0;;;;;;;0;0;0;;;;
2022/10/15 02:16:29;;;;;;;0;0;;;;;;;0;0;0;;;;
2022/10/15 02:17:39;;;;;;;0;0;;;;;;;0;0;0;;;;
2022/10/15 02:18:42;;;;;;;0;0;;;;;;;0;0;0;;;;
2022/10/15 02:19:50;;;;;;;0;0;;;;;;;0;0;0;;;;
2022/10/15 02:20:55;;;;;;;0;0;;;;;;;0;0;0;;;;
2022/10/15 02:21:58;;;;;;;0;0;;;;;;;0;0;0;;;;
2022/10/15 02:23:05;;;;;;;0;0;;;;;;;0;0;0;;;;
2022/10/15 02:24:12;;;;;;;0;0;;;;;;;0;0;0;;;;
2022/10/15 02:25:16;;;;;;;0;0;;;;;;;0;0;0;;;;
2022/10/15 02:26:20;;;;;;;0;0;;;;;;;0;0;0;;;;
2022/10/15 02:27:23;;;;;;;0;0;;;;;;;0;0;0;;;;
2022/10/15 02:28:26;;;;;;;0;0;;;;;;;0;0;0;;;;
2022/10/15 02:29:29;;;;;;;0;0;;;;;;;0;0;0;;;;
2022/10/15 02:30:33;;;;;;;0;0;;;;;;;0;0;0;;;;
2022/10/15 02:31:39;;;;;;;0;0;;;;;;;0;0;0;;;;
2022/10/15 02:32:43;;;;;;;0;0;;;;;;;0;0;0;;;;
2022/10/15 02:33:48;;;;;;;0;0;;;;;;;0;0;0;;;;
2022/10/15 02:34:51;;;;;;;0;0;;;;;;;0;0;0;;;;
2022/10/15 02:35:53;;;;;;;0;0;;;;;;;0;0;0;;;;
2022/10/15 02:36:54;;;;;;;0;0;;;;;;;0;0;0;;;;
2022/10/15 02:37:57;;;;;;;0;0;;;;;;;0;0;0;;;;
2022/10/15 02:39:01;;;;;;;0;0;;;;;;;0;0;0;;;;
2022/10/15 02:40:03;;;;;;;0;0;;;;;;;0;0;0;;;;
2022/10/15 02:41:04;;;;;;;0;0;;;;;;;0;0;0;;;;
2022/10/15 02:42:07;;;;;;;0;0;;;;;;;0;0;0;;;;
2022/10/15 02:43:07;;;;;;;0;0;;;;;;;0;0;0;;;;
2022/10/15 02:44:11;;;;;;;0;0;;;;;;;0;0;0;;;;
2022/10/15 02:45:12;;;;;;;0;0;;;;;;;0;0;0;;;;
2022/10/15 02:46:13;;;;;;;0;0;;;;;;;0;0;0;;;;
2022/10/15 02:47:16;;;;;;;0;0;;;;;;;0;0;0;;;;
2022/10/15 02:48:17;;;;;;;0;0;;;;;;;0;0;0;;;;
2022/10/15 02:49:17;;;;;;;0;0;;;;;;;0;0;0;;;;
2022/10/15 02:50:18;;;;;;;0;0;;;;;;;0;0;0;;;;
2022/10/15 02:51:18;;;;;;;0;0;;;;;;;0;0;0;;;;
2022/10/15 02:52:19;;;;;;;0;0;;;;;;;0;0;0;;;;
2022/10/15 02:53:19;;;;;;;0;0;;;;;;;0;0;0;;;;
2022/10/15 02:54:20;;;;;;;0;0;;;;;;;0;0;0;;;;
2022/10/15 02:55:20;;;;;;;0;0;;;;;;;0;0;0;;;;
2022/10/15 02:56:21;;;;;;;0;0;;;;;;;0;0;0;;;;
2022/10/15 02:57:21;;;;;;;0;0;;;;;;;0;0;0;;;;
2022/10/15 02:58:22;;;;;;;0;0;;;;;;;0;0;0;;;;
2022/10/15 02:59:23;;;;;;;0;0;;;;;;;0;0;0;;;;
2022/10/15 03:00:23;;;;;;;0;0;;;;;;;0;0;0;;;;
2022/10/15 03:01:24;;;;;;;0;0;;;;;;;0;0;0;;;;
2022/10/15 03:02:25;;;;;;;0;0;;;;;;;0;0;0;;;;
2022/10/15 03:03:25;;;;;;;0;0;;;;;;;0;0;0;;;;
2022/10/15 03:04:26;;;;;;;0;0;;;;;;;0;0;0;;;;
2022/10/15 03:05:26;;;;;;;0;0;;;;;;;0;0;0;;;;
2022/10/15 03:06:27;;;;;;;0;0;;;;;;;0;0;0;;;;
2022/10/15 03:07:27;;;;;;;0;0;;;;;;;0;0;0;;;;
2022/10/15 03:08:28;;;;;;;0;0;;;;;;;0;0;0;;;;
2022/10/15 03:09:28;;;;;;;0;0;;;;;;;0;0;0;;;;
2022/10/15 03:10:29;;;;;;;0;0;;;;;;;0;0;0;;;;
2022/10/15 03:11:29;;;;;;;0;0;;;;;;;0;0;0;;;;
2022/10/15 03:12:30;;;;;;;0;0;;;;;;;0;0;0;;;;
2022/10/15 03:13:30;;;;;;;0;0;;;;;;;0;0;0;;;;
2022/10/15 03:14:34;;;;;;;0;0;;;;;;;0;0;0;;;;
2022/10/15 03:15:34;;;;;;;0;0;;;;;;;0;0;0;;;;
2022/10/15 03:16:35;;;;;;;0;0;;;;;;;0;0;0;;;;
2022/10/15 03:17:36;;;;;;;0;0;;;;;;;0;0;0;;;;
2022/10/15 03:18:36;;;;;;;0;0;;;;;;;0;0;0;;;;
2022/10/15 03:19:37;;;;;;;0;0;;;;;;;0;0;0;;;;
2022/10/15 03:20:38;;;;;;;0;0;;;;;;;0;0;0;;;;
2022/10/15 03:21:38;;;;;;;0;0;;;;;;;0;0;0;;;;
2022/10/15 03:22:39;;;;;;;0;0;;;;;;;0;0;0;;;;
2022/10/15 03:23:39;;;;;;;0;0;;;;;;;0;0;0;;;;
2022/10/15 03:24:40;;;;;;;0;0;;;;;;;0;0;0;;;;
2022/10/15 03:25:40;;;;;;;0;0;;;;;;;0;0;0;;;;
2022/10/15 03:26:41;;;;;;;0;0;;;;;;;0;0;0;;;;
2022/10/15 03:27:41;;;;;;;0;0;;;;;;;0;0;0;;;;
2022/10/15 03:28:42;;;;;;;0;0;;;;;;;0;0;0;;;;
2022/10/15 03:29:42;;;;;;;0;0;;;;;;;0;0;0;;;;
2022/10/15 03:30:43;;;;;;;0;0;;;;;;;0;0;0;;;;
2022/10/15 03:31:43;;;;;;;0;0;;;;;;;0;0;0;;;;
2022/10/15 03:32:44;;;;;;;0;0;;;;;;;0;0;0;;;;
2022/10/15 03:33:44;;;;;;;0;0;;;;;;;0;0;0;;;;
2022/10/15 03:34:45;;;;;;;0;0;;;;;;;0;0;0;;;;
2022/10/15 03:35:45;;;;;;;0;0;;;;;;;0;0;0;;;;
2022/10/15 03:36:46;;;;;;;0;0;;;;;;;0;0;0;;;;
2022/10/15 03:37:46;;;;;;;0;0;;;;;;;0;0;0;;;;
2022/10/15 03:38:47;;;;;;;0;0;;;;;;;0;0;0;;;;
2022/10/15 03:39:47;;;;;;;0;0;;;;;;;0;0;0;;;;
2022/10/15 03:40:48;;;;;;;0;0;;;;;;;0;0;0;;;;
2022/10/15 03:41:49;;;;;;;0;0;;;;;;;0;0;0;;;;
2022/10/15 03:42:51;;;;;;;0;0;;;;;;;0;0;0;;;;
2022/10/15 03:43:52;;;;;;;0;0;;;;;;;0;0;0;;;;
2022/10/15 03:44:52;;;;;;;0;0;;;;;;;0;0;0;;;;
2022/10/15 03:45:53;;;;;;;0;0;;;;;;;0;0;0;;;;
2022/10/15 03:46:54;;;;;;;0;0;;;;;;;0;0;0;;;;
2022/10/15 03:47:54;;;;;;;0;0;;;;;;;0;0;0;;;;
2022/10/15 03:48:55;;;;;;;0;0;;;;;;;0;0;0;;;;
2022/10/15 03:49:56;;;;;;;0;0;;;;;;;0;0;0;;;;
2022/10/15 03:50:56;;;;;;;0;0;;;;;;;0;0;0;;;;
2022/10/15 03:51:57;;;;;;;0;0;;;;;;;0;0;0;;;;
2022/10/15 10:32:18;;;;;;;0;0;;;;;;;0;0;0;;;;
2022/10/15 10:33:20;;;;;;;0;0;;;;;;;0;0;0;;;;
2022/10/15 10:34:26;;;;;;;0;0;;;;;;;0;0;0;;;;
2022/10/15 10:35:29;;;;;;;0;0;;;;;;;0;0;0;;;;
2022/10/15 10:36:42;;;;;;;0;0;;;;;;;0;0;0;;;;
2022/10/15 10:37:48;;;;;;;0;0;;;;;;;0;0;0;;;;
2022/10/15 10:38:49;;;;;;;0;0;;;;;;;0;0;0;;;;
2022/10/15 10:40:01;;;;;;;0;0;;;;;;;0;0;0;;;;
2022/10/15 10:41:23;;;;;;;0;0;;;;;;;0;0;0;;;;
2022/10/15 10:42:47;;;;;;;0;0;;;;;;;0;0;0;;;;
2022/10/15 10:43:47;;;;;;;0;0;;;;;;;0;0;0;;;;
2022/10/15 10:44:54;;;;;;;0;0;;;;;;;0;0;0;;;;
2022/10/15 10:45:54;;;;;;;0;0;;;;;;;0;0;0;;;;
2022/10/15 10:46:57;;;;;;;0;0;;;;;;;0;0;0;;;;
2022/10/15 10:48:09;;;;;;;0;0;;;;;;;0;0;0;;;;
2022/10/15 10:49:18;;;;;;;0;0;;;;;;;0;0;0;;;;
2022/10/15 10:50:29;;;;;;;0;0;;;;;;;0;0;0;;;;
2022/10/15 10:51:32;;;;;;;0;0;;;;;;;0;0;0;;;;
2022/10/15 10:52:33;;;;;;;0;0;;;;;;;0;0;0;;;;
2022/10/15 10:53:35;;;;;;;0;0;;;;;;;0;0;0;;;;
2022/10/15 10:54:45;;;;;;;0;0;;;;;;;0;0;0;;;;
2022/10/15 10:55:47;;;;;;;0;0;;;;;;;0;0;0;;;;
2022/10/15 10:56:49;;;;;;;0;0;;;;;;;0;0;0;;;;
2022/10/15 10:57:50;;;;;;;0;0;;;;;;;0;0;0;;;;
2022/10/15 10:58:54;;;;;;;0;0;;;;;;;0;0;0;;;;
2022/10/15 10:59:59;;;;;;;0;0;;;;;;;0;0;0;;;;
2022/10/15 11:01:03;;;;;;;0;0;;;;;;;0;0;0;;;;
2022/10/15 11:02:05;;;;;;;0;0;;;;;;;0;0;0;;;;
2022/10/15 11:03:09;;;;;;;0;0;;;;;;;0;0;0;;;;
2022/10/15 11:04:21;;;;;;;0;0;;;;;;;0;0;0;;;;
2022/10/15 11:05:24;;;;;;;0;0;;;;;;;0;0;0;;;;
2022/10/15 11:06:28;;;;;;;0;0;;;;;;;0;0;0;;;;
2022/10/15 11:07:50;;;;;;;0;0;;;;;;;0;0;0;;;;
2022/10/15 11:09:02;;;;;;;0;0;;;;;;;0;0;0;;;;
2022/10/15 11:10:14;;;;;;;0;0;;;;;;;0;0;0;;;;
2022/10/15 11:11:21;;;;;;;0;0;;;;;;;0;0;0;;;;
2022/10/15 11:12:28;;;;;;;0;0;;;;;;;0;0;0;;;;
2022/10/15 11:13:41;;;;;;;0;0;;;;;;;0;0;0;;;;
2022/10/15 11:14:54;;;;;;;0;0;;;;;;;0;0;0;;;;
2022/10/15 11:16:03;;;;;;;0;0;;;;;;;0;0;0;;;;
2022/10/15 11:17:10;;;;;;;0;0;;;;;;;0;0;0;;;;
2022/10/15 11:18:20;;;;;;;0;0;;;;;;;0;0;0;;;;
2022/10/15 11:19:31;;;;;;;0;0;;;;;;;0;0;0;;;;
2022/10/15 11:20:40;;;;;;;0;0;;;;;;;0;0;0;;;;
2022/10/15 11:21:53;;;;;;;0;0;;;;;;;0;0;0;;;;
2022/10/15 11:23:13;;;;;;;0;0;;;;;;;0;0;0;;;;
2022/10/15 11:24:24;;;;;;;0;0;;;;;;;0;0;0;;;;
2022/10/15 11:25:34;;;;;;;0;0;;;;;;;0;0;0;;;;
2022/10/15 11:26:45;;;;;;;0;0;;;;;;;0;0;0;;;;
2022/10/15 11:27:59;;;;;;;0;0;;;;;;;0;0;0;;;;
2022/10/15 11:29:16;;;;;;;0;0;;;;;;;0;0;0;;;;
2022/10/15 11:30:24;;;;;;;0;0;;;;;;;0;0;0;;;;
2022/10/15 11:31:37;;;;;;;0;0;;;;;;;0;0;0;;;;
2022/10/15 11:32:46;;;;;;;0;0;;;;;;;0;0;0;;;;
2022/10/15 11:33:57;;;;;;;0;0;;;;;;;0;0;0;;;;
2022/10/15 11:35:15;;;;;;;0;0;;;;;;;0;0;0;;;;
2022/10/15 11:36:29;;;;;;;0;0;;;;;;;0;0;0;;;;
2022/10/15 11:37:42;;;;;;;0;0;;;;;;;0;0;0;;;;
2022/10/15 11:38:52;;;;;;;0;0;;;;;;;0;0;0;;;;
2022/10/15 11:40:02;;;;;;;0;0;;;;;;;0;0;0;;;;
2022/10/15 11:41:16;;;;;;;0;0;;;;;;;0;0;0;;;;
2022/10/15 11:42:32;;;;;;;0;0;;;;;;;0;0;0;;;;
2022/10/15 11:43:42;;;;;;;0;0;;;;;;;0;0;0;;;;
2022/10/15 11:44:57;;;;;;;0;0;;;;;;;0;0;0;;;;
2022/10/15 11:46:10;;;;;;;0;0;;;;;;;0;0;0;;;;
2022/10/15 12:03:18;;;;;;;0.7;0.2;;;;;;;29.29;94.42969;95031.17;;;;
2022/10/15 12:04:24;;;;;;;0.7;0.2;;;;;;;29.29;94.42969;95031.17;;;;
2022/10/15 12:05:32;;;;;;;0.7;0.2;;;;;;;29.29;94.42969;95031.17;;;;
2022/10/15 12:06:39;;;;;;;0.7;0.2;;;;;;;29.29;94.42969;95031.17;;;;
2022/10/15 12:07:42;;;;;;;0.7;0.2;;;;;;;29.29;94.42969;95031.17;;;;
2022/10/15 12:08:45;;;;;;;0.7;0.2;;;;;;;29.29;94.42969;95031.17;;;;
2022/10/15 12:09:48;;;;;;;0.7;0.2;;;;;;;29.29;94.42969;95031.17;;;;
2022/10/15 12:10:53;;;;;;;0.7;0.2;;;;;;;29.29;94.42969;95031.17;;;;
2022/10/15 12:12:05;;;;;;;0.7;0.2;;;;;;;29.29;94.42969;95031.17;;;;
2022/10/15 12:13:17;;;;;;;0;0;;;;;;;0;0;0;;;;
2022/10/15 12:14:25;;;;;;;0;0;;;;;;;0;0;0;;;;
2022/10/15 12:15:31;;;;;;;0;0;;;;;;;0;0;0;;;;
2022/10/15 12:16:38;;;;;;;0;0;;;;;;;0;0;0;;;;
2022/10/15 12:17:45;;;;;;;0;0;;;;;;;0;0;0;;;;
2022/10/15 12:18:51;;;;;;;0;0;;;;;;;0;0;0;;;;
2022/10/15 12:20:02;;;;;;;0;0;;;;;;;0;0;0;;;;
2022/10/15 12:21:11;;;;;;;0;0;;;;;;;0;0;0;;;;
2022/10/15 12:23:02;;;;;;;0;0;;;;;;;0;0;0;;;;
2022/10/15 12:24:02;;;;;;;0;0;;;;;;;0;0;0;;;;
2022/10/15 12:25:47;;;;;;;0;0;;;;;;;0;0;0;;;;
2022/10/15 12:26:48;;;;;;;0;0;;;;;;;0;0;0;;;;
2022/10/15 12:27:49;;;;;;;0;0;;;;;;;0;0;0;;;;
2022/10/15 12:28:59;;;;;;;0;0;;;;;;;0;0;0;;;;
2022/10/15 12:30:03;;;;;;;0;0;;;;;;;0;0;0;;;;
2022/10/15 12:31:23;;;;;;;0;0;;;;;;;0;0;0;;;;
2022/10/15 12:32:24;;;;;;;0;0;;;;;;;0;0;0;;;;
2022/10/15 12:33:27;;;;;;;0;0;;;;;;;0;0;0;;;;
2022/10/15 12:34:33;;;;;;;0;0;;;;;;;0;0;0;;;;
2022/10/15 12:35:40;;;;;;;0;0;;;;;;;0;0;0;;;;
2022/10/15 12:36:41;;;;;;;0;0;;;;;;;0;0;0;;;;
2022/10/15 12:37:41;;;;;;;0;0;;;;;;;0;0;0;;;;
2022/10/15 12:38:45;;;;;;;0;0;;;;;;;0;0;0;;;;
2022/10/15 12:39:56;;;;;;;0;0;;;;;;;0;0;0;;;;
2022/10/15 12:41:00;;;;;;;0;0;;;;;;;0;0;0;;;;
2022/10/15 12:42:05;;;;;;;0;0;;;;;;;0;0;0;;;;
2022/10/15 12:43:21;;;;;;;0.1;0.05;;;;;;;26.98;85.08203;95034.59;;;;
2022/10/15 12:44:21;;;;;;;0.1;0.05;;;;;;;26.98;85.08203;95034.59;;;;
2022/10/15 12:45:25;;;;;;;0.1;0.05;;;;;;;26.98;85.08203;95034.59;;;;
2022/10/15 12:46:33;;;;;;;0.1;0.05;;;;;;;26.98;85.08203;95034.59;;;;
2022/10/15 12:47:38;;;;;;;0.1;0.05;;;;;;;26.98;85.08203;95034.59;;;;
2022/10/15 12:48:52;;;;;;;0.1;0.05;;;;;;;26.98;85.08203;95034.59;;;;
2022/10/15 12:49:53;;;;;;;0.1;0.05;;;;;;;26.98;85.08203;95034.59;;;;
2022/10/15 12:51:01;;;;;;;0.1;0.05;;;;;;;26.98;85.08203;95034.59;;;;
2022/10/15 12:52:35;;;;;;;0.1;0.05;;;;;;;26.98;85.08203;95034.59;;;;
2022/10/15 12:54:29;;;;;;;0.1;0;;;;;;;28.3;90.23828;95018.46;;;;
2022/10/15 12:55:39;;;;;;;0.1;0;;;;;;;28.3;90.23828;95018.46;;;;
2022/10/15 12:56:40;;;;;;;0.1;0;;;;;;;28.3;90.23828;95018.46;;;;
2022/10/15 12:57:41;;;;;;;0.1;0;;;;;;;28.3;90.23828;95018.46;;;;
2022/10/15 12:58:59;;;;;;;0.1;0;;;;;;;28.3;90.23828;95018.46;;;;
2022/10/15 13:00:00;;;;;;;0.1;0;;;;;;;28.3;90.23828;95018.46;;;;
2022/10/15 13:01:02;;;;;;;0.1;0;;;;;;;28.3;90.23828;95018.46;;;;
2022/10/15 13:02:05;;;;;;;0.1;0;;;;;;;28.3;90.23828;95018.46;;;;
2022/10/15 13:03:32;;;;;;;0.1;0;;;;;;;28.3;90.23828;95018.46;;;;
2022/10/15 13:04:37;;;;;;;1;0.2;;;;;;;31;87.03613;95010.1;;;;
2022/10/15 13:05:38;;;;;;;1;0.2;;;;;;;31;87.03613;95010.1;;;;
2022/10/15 13:06:39;;;;;;;1;0.2;;;;;;;31;87.03613;95010.1;;;;
2022/10/15 13:07:39;;;;;;;1;0.2;;;;;;;31;87.03613;95010.1;;;;
2022/10/15 13:08:46;;;;;;;1;0.2;;;;;;;31;87.03613;95010.1;;;;
2022/10/15 13:09:50;;;;;;;1;0.2;;;;;;;31;87.03613;95010.1;;;;
2022/10/15 13:10:51;;;;;;;1;0.2;;;;;;;31;87.03613;95010.1;;;;
2022/10/15 13:11:54;;;;;;;1;0.2;;;;;;;31;87.03613;95010.1;;;;
2022/10/15 13:12:57;;;;;;;1;0.2;;;;;;;31;87.03613;95010.1;;;;
2022/10/15 13:14:01;;;;;;;1;0.2;;;;;;;31;87.03613;95010.1;;;;
2022/10/15 13:15:16;;;;;;;0.1;0.1;;;;;;;30.44;79.1084;95007.45;;;;
2022/10/15 13:16:17;;;;;;;0.1;0.1;;;;;;;30.44;79.1084;95007.45;;;;
2022/10/15 13:17:19;;;;;;;0.1;0.1;;;;;;;30.44;79.1084;95007.45;;;;
2022/10/15 13:18:21;;;;;;;0.1;0.1;;;;;;;30.44;79.1084;95007.45;;;;
2022/10/15 13:19:23;;;;;;;0.1;0.1;;;;;;;30.44;79.1084;95007.45;;;;
2022/10/15 13:20:28;;;;;;;0.1;0.1;;;;;;;30.44;79.1084;95007.45;;;;
2022/10/15 13:21:33;;;;;;;0.1;0.1;;;;;;;30.44;79.1084;95007.45;;;;
2022/10/15 13:22:47;;;;;;;0.1;0.1;;;;;;;30.44;79.1084;95007.45;;;;
2022/10/15 13:23:48;;;;;;;0.1;0.1;;;;;;;30.44;79.1084;95007.45;;;;
2022/10/15 13:24:50;;;;;;;0.1;0.1;;;;;;;30.44;79.1084;95007.45;;;;
2022/10/15 13:25:51;;;;;;;0.1;0.1;;;;;;;30.44;79.1084;95007.45;;;;
2022/10/15 13:26:52;;;;;;;0.35;0;;;;;;;28.15;83.7627;95016.16;;;;
2022/10/15 13:27:54;;;;;;;0.35;0;;;;;;;28.15;83.7627;95016.16;;;;
2022/10/15 13:28:55;;;;;;;0.35;0;;;;;;;28.15;83.7627;95016.16;;;;
2022/10/15 13:29:56;;;;;;;0.35;0;;;;;;;28.15;83.7627;95016.16;;;;
2022/10/15 13:30:59;;;;;;;0.35;0;;;;;;;28.15;83.7627;95016.16;;;;
2022/10/15 13:32:02;;;;;;;0.35;0;;;;;;;28.15;83.7627;95016.16;;;;
2022/10/15 13:33:11;;;;;;;0.35;0;;;;;;;28.15;83.7627;95016.16;;;;
2022/10/15 13:34:12;;;;;;;0.35;0;;;;;;;28.15;83.7627;95016.16;;;;
2022/10/15 13:35:27;;;;;;;0.35;0;;;;;;;28.15;83.7627;95016.16;;;;
2022/10/15 13:36:29;;;;;;;0.35;0;;;;;;;28.15;83.7627;95016.16;;;;
2022/10/15 13:37:32;;;;;;;0.1;0.1;;;;;;;27.31;84.11914;95011.27;;;;
2022/10/15 13:38:37;;;;;;;0.1;0.1;;;;;;;27.31;84.11914;95011.27;;;;
2022/10/15 13:39:38;;;;;;;0.1;0.1;;;;;;;27.31;84.11914;95011.27;;;;
2022/10/15 13:40:39;;;;;;;0.1;0.1;;;;;;;27.31;84.11914;95011.27;;;;
2022/10/15 13:41:46;;;;;;;0.1;0.1;;;;;;;27.31;84.11914;95011.27;;;;
2022/10/15 13:42:48;;;;;;;0.1;0.1;;;;;;;27.31;84.11914;95011.27;;;;
2022/10/15 13:44:05;;;;;;;0.1;0.1;;;;;;;27.31;84.11914;95011.27;;;;
2022/10/15 13:45:18;;;;;;;0.1;0.1;;;;;;;27.31;84.11914;95011.27;;;;
2022/10/15 13:46:19;;;;;;;0.1;0.1;;;;;;;27.31;84.11914;95011.27;;;;
2022/10/15 13:47:22;;;;;;;0.3;0.1;;;;;;;26.8;85.56055;95014.4;;;;
2022/10/15 13:48:28;;;;;;;0.3;0.1;;;;;;;26.8;85.56055;95014.4;;;;
2022/10/15 13:49:30;;;;;;;0.3;0.1;;;;;;;26.8;85.56055;95014.4;;;;
2022/10/15 13:50:31;;;;;;;0.3;0.1;;;;;;;26.8;85.56055;95014.4;;;;
2022/10/15 13:51:34;;;;;;;0.3;0.1;;;;;;;26.8;85.56055;95014.4;;;;
2022/10/15 13:52:39;;;;;;;0.3;0.1;;;;;;;26.8;85.56055;95014.4;;;;
2022/10/15 13:53:42;;;;;;;0.3;0.1;;;;;;;26.8;85.56055;95014.4;;;;
2022/10/15 13:54:42;;;;;;;0.3;0.1;;;;;;;26.8;85.56055;95014.4;;;;
2022/10/15 13:55:44;;;;;;;0.3;0.1;;;;;;;26.8;85.56055;95014.4;;;;
2022/10/15 13:56:48;;;;;;;0.3;0.1;;;;;;;26.8;85.56055;95014.4;;;;
2022/10/15 13:57:55;;;;;;;1.1;0.2;;;;;;;26.66;86.02344;95007.4;;;;
2022/10/15 13:59:00;;;;;;;1.1;0.2;;;;;;;26.66;86.02344;95007.4;;;;
2022/10/15 14:00:02;;;;;;;1.1;0.2;;;;;;;26.66;86.02344;95007.4;;;;
2022/10/15 14:01:04;;;;;;;1.1;0.2;;;;;;;26.66;86.02344;95007.4;;;;
2022/10/15 14:02:08;;;;;;;1.1;0.2;;;;;;;26.66;86.02344;95007.4;;;;
2022/10/15 14:03:11;;;;;;;1.1;0.2;;;;;;;26.66;86.02344;95007.4;;;;
2022/10/15 14:04:15;;;;;;;1.1;0.2;;;;;;;26.66;86.02344;95007.4;;;;
2022/10/15 14:05:18;;;;;;;1.1;0.2;;;;;;;26.66;86.02344;95007.4;;;;
2022/10/15 14:06:22;;;;;;;1.1;0.2;;;;;;;26.66;86.02344;95007.4;;;;
2022/10/15 14:07:25;;;;;;;1.1;0.2;;;;;;;26.66;86.02344;95007.4;;;;
2022/10/15 14:08:26;;;;;;;1.1;0.2;;;;;;;26.66;86.02344;95007.4;;;;
2022/10/15 14:09:33;;;;;;;0.1;0.1;;;;;;;24.91;84.83887;95007.65;;;;
2022/10/15 14:10:36;;;;;;;0.1;0.1;;;;;;;24.91;84.83887;95007.65;;;;
2022/10/15 14:11:38;;;;;;;0.1;0.1;;;;;;;24.91;84.83887;95007.65;;;;
2022/10/15 14:12:38;;;;;;;0.1;0.1;;;;;;;24.91;84.83887;95007.65;;;;
2022/10/15 14:13:39;;;;;;;0.1;0.1;;;;;;;24.91;84.83887;95007.65;;;;
2022/10/15 14:14:45;;;;;;;0.1;0.1;;;;;;;24.91;84.83887;95007.65;;;;
2022/10/15 14:15:46;;;;;;;0.1;0.1;;;;;;;24.91;84.83887;95007.65;;;;
2022/10/15 14:16:54;;;;;;;0.1;0.1;;;;;;;24.91;84.83887;95007.65;;;;
2022/10/15 14:17:56;;;;;;;0.1;0.1;;;;;;;24.91;84.83887;95007.65;;;;
2022/10/15 14:18:56;;;;;;;0.1;0.1;;;;;;;24.91;84.83887;95007.65;;;;
2022/10/15 14:20:08;;;;;;;0.3;0.1;;;;;;;23.36;87.21094;95007.7;;;;
2022/10/15 14:21:21;;;;;;;0.3;0.1;;;;;;;23.36;87.21094;95007.7;;;;
2022/10/15 14:22:24;;;;;;;0.3;0.1;;;;;;;23.36;87.21094;95007.7;;;;
2022/10/15 14:23:27;;;;;;;0.3;0.1;;;;;;;23.36;87.21094;95007.7;;;;
2022/10/15 14:24:29;;;;;;;0.3;0.1;;;;;;;23.36;87.21094;95007.7;;;;
2022/10/15 14:25:33;;;;;;;0.3;0.1;;;;;;;23.36;87.21094;95007.7;;;;
2022/10/15 14:26:33;;;;;;;0.3;0.1;;;;;;;23.36;87.21094;95007.7;;;;
2022/10/15 14:27:34;;;;;;;0.3;0.1;;;;;;;23.36;87.21094;95007.7;;;;
2022/10/15 14:28:35;;;;;;;0.3;0.1;;;;;;;23.36;87.21094;95007.7;;;;
2022/10/15 14:29:37;;;;;;;0.3;0.1;;;;;;;23.36;87.21094;95007.7;;;;
2022/10/15 14:30:43;;;;;;;0.9;0.2;;;;;;;22.17;89.86035;95012.95;;;;
2022/10/15 14:31:43;;;;;;;0.9;0.2;;;;;;;22.17;89.86035;95012.95;;;;
2022/10/15 14:32:46;;;;;;;0.9;0.2;;;;;;;22.17;89.86035;95012.95;;;;
2022/10/15 14:33:48;;;;;;;0.9;0.2;;;;;;;22.17;89.86035;95012.95;;;;
2022/10/15 14:34:49;;;;;;;0.9;0.2;;;;;;;22.17;89.86035;95012.95;;;;
2022/10/15 14:35:50;;;;;;;0.9;0.2;;;;;;;22.17;89.86035;95012.95;;;;
2022/10/15 14:37:03;;;;;;;0.9;0.2;;;;;;;22.17;89.86035;95012.95;;;;
2022/10/15 14:38:27;;;;;;;0.9;0.2;;;;;;;22.17;89.86035;95012.95;;;;
2022/10/15 14:39:28;;;;;;;0.9;0.2;;;;;;;22.17;89.86035;95012.95;;;;
2022/10/15 14:40:31;;;;;;;0.2;0.1;;;;;;;21.53;93.14453;95016.71;;;;
2022/10/15 14:41:33;;;;;;;0.2;0.1;;;;;;;21.53;93.14453;95016.71;;;;
2022/10/15 14:42:34;;;;;;;0.2;0.1;;;;;;;21.53;93.14453;95016.71;;;;
2022/10/15 14:43:38;;;;;;;0.2;0.1;;;;;;;21.53;93.14453;95016.71;;;;
2022/10/15 14:44:38;;;;;;;0.2;0.1;;;;;;;21.53;93.14453;95016.71;;;;
2022/10/15 14:45:41;;;;;;;0.2;0.1;;;;;;;21.53;93.14453;95016.71;;;;
2022/10/15 14:46:54;;;;;;;0.2;0.1;;;;;;;21.53;93.14453;95016.71;;;;
2022/10/15 14:48:01;;;;;;;0.2;0.1;;;;;;;21.53;93.14453;95016.71;;;;
2022/10/15 14:49:08;;;;;;;0.2;0.1;;;;;;;21.53;93.14453;95016.71;;;;
2022/10/15 14:50:17;;;;;;;0.2;0.1;;;;;;;21.53;93.14453;95016.71;;;;
2022/10/15 14:51:19;;;;;;;0.05;0.05;;;;;;;21.2;94.91992;95025.52;;;;
2022/10/15 14:52:24;;;;;;;0.05;0.05;;;;;;;21.2;94.91992;95025.52;;;;
2022/10/15 14:53:26;;;;;;;0.05;0.05;;;;;;;21.2;94.91992;95025.52;;;;
2022/10/15 14:54:32;;;;;;;0.05;0.05;;;;;;;21.2;94.91992;95025.52;;;;
2022/10/15 14:55:37;;;;;;;0.05;0.05;;;;;;;21.2;94.91992;95025.52;;;;
2022/10/15 14:56:42;;;;;;;0.05;0.05;;;;;;;21.2;94.91992;95025.52;;;;
2022/10/15 14:57:43;;;;;;;0.05;0.05;;;;;;;21.2;94.91992;95025.52;;;;
2022/10/15 14:58:44;;;;;;;0.05;0.05;;;;;;;21.2;94.91992;95025.52;;;;
2022/10/15 14:59:47;;;;;;;0.05;0.05;;;;;;;21.2;94.91992;95025.52;;;;
2022/10/15 15:00:51;;;;;;;0.05;0.05;;;;;;;21.2;94.91992;95025.52;;;;
2022/10/15 15:01:56;;;;;;;0.3;0.1;;;;;;;20.84;96.17969;95036.3;;;;
2022/10/15 15:02:59;;;;;;;0.3;0.1;;;;;;;20.84;96.17969;95036.3;;;;
2022/10/15 15:04:04;;;;;;;0.3;0.1;;;;;;;20.84;96.17969;95036.3;;;;
2022/10/15 15:05:04;;;;;;;0.3;0.1;;;;;;;20.84;96.17969;95036.3;;;;
2022/10/15 15:06:15;;;;;;;0.3;0.1;;;;;;;20.84;96.17969;95036.3;;;;